createdAt,value
2022-12-15T00:00:23.392Z,87.62
2022-12-15T00:03:30.769Z,87.79
2022-12-15T00:06:19.544Z,87.40
2022-12-15T00:09:08.551Z,87.76
2022-12-15T00:11:59.033Z,87.57
2022-12-15T00:14:45.653Z,86.98
2022-12-15T00:17:32.006Z,87.01
2022-12-15T00:20:18.556Z,86.51
2022-12-15T00:23:05.197Z,86.66
2022-12-15T00:25:52.033Z,86.95
2022-12-15T00:28:38.496Z,87.11
2022-12-15T00:31:25.361Z,86.54
2022-12-15T00:34:11.958Z,86.29
2022-12-15T00:36:58.361Z,86.31
2022-12-15T00:39:26.153Z,86.70
2022-12-15T00:41:54.132Z,86.82
2022-12-15T00:44:23.275Z,86.90
2022-12-15T00:46:57.323Z,86.85
2022-12-15T00:49:52.638Z,86.54
2022-12-15T00:52:39.269Z,86.53
2022-12-15T00:55:26.079Z,86.25
2022-12-15T00:58:13.174Z,86.88
2022-12-15T01:00:59.853Z,86.49
2022-12-15T01:03:46.338Z,86.28
2022-12-15T01:06:35.733Z,86.11
2022-12-15T01:09:23.495Z,86.37
2022-12-15T01:12:10.150Z,85.87
2022-12-15T01:14:57.296Z,85.82
2022-12-15T01:17:43.847Z,86.22
2022-12-15T01:20:18.310Z,86.25
2022-12-15T01:22:50.538Z,86.18
2022-12-15T01:25:20.827Z,85.95
2022-12-15T01:27:49.275Z,86.26
2022-12-15T01:30:24.558Z,86.41
2022-12-15T01:32:53.130Z,86.28
2022-12-15T01:35:21.904Z,86.37
2022-12-15T01:37:49.897Z,86.30
2022-12-15T01:40:39.770Z,85.91
2022-12-15T01:43:13.996Z,86.18
2022-12-15T01:46:16.065Z,86.01
2022-12-15T01:48:59.223Z,86.27
2022-12-15T01:51:37.502Z,86.17
2022-12-15T01:54:23.562Z,86.08
2022-12-15T01:56:56.890Z,86.22
2022-12-15T01:59:33.136Z,86.13
2022-12-15T02:02:02.279Z,86.74
2022-12-15T02:04:31.268Z,86.82
2022-12-15T02:06:59.385Z,87.18
2022-12-15T02:09:28.470Z,87.13
2022-12-15T02:12:07.242Z,86.84
2022-12-15T02:15:03.214Z,87.20
2022-12-15T02:17:40.296Z,86.82
2022-12-15T02:20:23.580Z,86.77
2022-12-15T02:23:12.440Z,86.71
2022-12-15T02:26:17.264Z,86.79
2022-12-15T02:28:59.326Z,87.14
2022-12-15T02:31:50.151Z,87.35
2022-12-15T02:34:53.886Z,87.56
2022-12-15T02:37:32.664Z,87.71
2022-12-15T02:40:00.972Z,88.14
2022-12-15T02:42:32.084Z,88.25
2022-12-15T02:44:59.981Z,88.92
2022-12-15T02:48:01.244Z,88.79
2022-12-15T02:50:51.546Z,89.27
2022-12-15T02:53:50.825Z,89.25
2022-12-15T02:56:40.078Z,89.17
2022-12-15T02:59:25.485Z,88.89
2022-12-15T03:01:58.496Z,89.11
2022-12-15T03:04:27.481Z,89.34
2022-12-15T03:07:01.243Z,89.48
2022-12-15T03:09:32.607Z,89.39
2022-12-15T03:12:00.823Z,89.87
2022-12-15T03:14:28.793Z,89.44
2022-12-15T03:16:56.822Z,89.78
2022-12-15T03:19:25.924Z,89.62
2022-12-15T03:21:53.913Z,89.74
2022-12-15T03:24:21.632Z,89.95
2022-12-15T03:26:50.220Z,89.82
2022-12-15T03:29:18.840Z,89.76
2022-12-15T03:31:49.882Z,89.68
2022-12-15T03:34:18.189Z,89.86
2022-12-15T03:36:46.562Z,89.76
2022-12-15T03:39:14.671Z,89.63
2022-12-15T03:41:42.915Z,89.89
2022-12-15T03:44:10.639Z,89.70
2022-12-15T03:46:38.861Z,89.94
2022-12-15T03:49:07.120Z,89.47
2022-12-15T03:51:35.367Z,89.55
2022-12-15T03:54:03.047Z,89.51
2022-12-15T03:56:31.094Z,89.61
2022-12-15T03:58:58.867Z,89.60
2022-12-15T04:01:31.553Z,89.90
2022-12-15T04:04:01.172Z,89.64
2022-12-15T04:06:30.993Z,89.84
2022-12-15T04:08:58.872Z,89.66
2022-12-15T04:11:26.846Z,89.59
2022-12-15T04:13:54.591Z,90.05
2022-12-15T04:16:22.636Z,89.63
2022-12-15T04:19:10.370Z,89.58
2022-12-15T04:21:38.336Z,89.69
2022-12-15T04:24:25.261Z,90.01
2022-12-15T04:27:11.877Z,90.12
2022-12-15T04:29:58.014Z,90.12
2022-12-15T04:32:44.783Z,90.09
2022-12-15T04:35:36.565Z,90.00
2022-12-15T04:38:22.974Z,90.17
2022-12-15T04:41:09.316Z,89.85
2022-12-15T04:43:56.227Z,89.85
2022-12-15T04:46:42.450Z,89.97
2022-12-15T04:49:28.861Z,89.84
2022-12-15T04:52:16.135Z,90.17
2022-12-15T04:55:02.554Z,90.41
2022-12-15T04:57:48.978Z,90.16
2022-12-15T05:00:35.631Z,90.61
2022-12-15T05:03:26.578Z,90.31
2022-12-15T05:06:12.999Z,90.14
2022-12-15T05:08:59.482Z,90.10
2022-12-15T05:11:46.076Z,90.22
2022-12-15T05:14:32.422Z,90.32
2022-12-15T05:17:19.008Z,90.51
2022-12-15T05:20:05.446Z,90.22
2022-12-15T05:22:52.160Z,90.52
2022-12-15T05:25:38.837Z,90.57
2022-12-15T05:28:25.904Z,90.27
2022-12-15T05:31:12.424Z,90.47
2022-12-15T05:33:40.709Z,90.08
2022-12-15T05:36:08.807Z,89.64
2022-12-15T05:38:36.973Z,89.76
2022-12-15T05:41:04.687Z,90.14
2022-12-15T05:43:32.961Z,90.23
2022-12-15T05:46:05.278Z,89.80
2022-12-15T05:48:33.406Z,89.54
2022-12-15T05:51:11.181Z,89.24
2022-12-15T05:53:41.001Z,89.44
2022-12-15T05:56:11.810Z,89.33
2022-12-15T05:58:45.153Z,89.08
2022-12-15T06:01:14.602Z,89.31
2022-12-15T06:03:42.933Z,89.19
2022-12-15T06:06:12.504Z,89.27
2022-12-15T06:08:42.456Z,88.63
2022-12-15T06:11:15.439Z,89.05
2022-12-15T06:13:44.331Z,88.95
2022-12-15T06:16:15.272Z,88.65
2022-12-15T06:18:50.131Z,89.03
2022-12-15T06:21:21.354Z,89.31
2022-12-15T06:23:49.977Z,89.00
2022-12-15T06:26:26.985Z,89.34
2022-12-15T06:28:57.304Z,89.44
2022-12-15T06:31:26.126Z,89.44
2022-12-15T06:34:01.254Z,89.12
2022-12-15T06:36:31.081Z,89.40
2022-12-15T06:39:01.206Z,89.29
2022-12-15T06:41:30.621Z,88.59
2022-12-15T06:44:00.192Z,89.12
2022-12-15T06:46:30.294Z,89.22
2022-12-15T06:48:59.193Z,88.65
2022-12-15T06:51:28.056Z,88.97
2022-12-15T06:53:56.578Z,88.70
2022-12-15T06:56:38.910Z,88.18
2022-12-15T06:59:08.567Z,88.07
2022-12-15T07:01:36.776Z,87.57
2022-12-15T07:04:05.753Z,88.14
2022-12-15T07:06:38.485Z,88.20
2022-12-15T07:09:12.732Z,88.14
2022-12-15T07:11:40.682Z,87.94
2022-12-15T07:14:09.285Z,87.79
2022-12-15T07:16:37.134Z,88.13
2022-12-15T07:19:05.197Z,87.93
2022-12-15T07:21:33.034Z,88.13
2022-12-15T07:24:01.956Z,87.69
2022-12-15T07:26:30.633Z,87.49
2022-12-15T07:28:58.649Z,87.76
2022-12-15T07:31:26.393Z,87.50
2022-12-15T07:33:54.799Z,87.10
2022-12-15T07:36:22.831Z,87.44
2022-12-15T07:38:51.589Z,86.96
2022-12-15T07:41:20.605Z,86.69
2022-12-15T07:43:48.775Z,87.01
2022-12-15T07:46:18.230Z,86.40
2022-12-15T07:48:50.227Z,86.51
2022-12-15T07:51:22.770Z,86.45
2022-12-15T07:53:51.369Z,85.97
2022-12-15T07:56:20.489Z,86.00
2022-12-15T07:58:48.920Z,86.28
2022-12-15T08:01:17.191Z,85.76
2022-12-15T08:03:45.481Z,85.82
2022-12-15T08:06:15.139Z,86.09
2022-12-15T08:08:50.448Z,86.31
2022-12-15T08:11:23.071Z,85.75
2022-12-15T08:14:10.568Z,86.15
2022-12-15T08:16:39.793Z,85.99
2022-12-15T08:19:11.146Z,85.82
2022-12-15T08:21:40.665Z,85.63
2022-12-15T08:24:09.731Z,84.96
2022-12-15T08:26:38.388Z,84.10
2022-12-15T08:31:56.011Z,83.94
2022-12-15T08:34:24.033Z,83.85
2022-12-15T08:36:51.819Z,83.63
2022-12-15T08:39:20.519Z,83.43
2022-12-15T08:41:48.237Z,83.55
2022-12-15T08:44:19.370Z,82.85
2022-12-15T08:46:47.129Z,82.19
2022-12-15T08:49:21.144Z,82.43
2022-12-15T08:51:50.700Z,82.10
2022-12-15T08:54:20.668Z,81.06
2022-12-15T08:56:48.785Z,80.57
2022-12-15T08:59:17.152Z,80.44
2022-12-15T09:01:45.102Z,80.02
2022-12-15T09:04:13.528Z,79.64
2022-12-15T09:06:41.784Z,79.41
2022-12-15T09:09:13.209Z,78.46
2022-12-15T09:11:40.986Z,78.39
2022-12-15T09:14:09.018Z,77.93
2022-12-15T09:16:36.937Z,77.24
2022-12-15T09:19:05.221Z,77.43
2022-12-15T09:21:32.950Z,77.46
2022-12-15T09:24:02.381Z,77.99
2022-12-15T09:26:33.078Z,77.87
2022-12-15T09:29:04.741Z,76.84
2022-12-15T09:31:37.318Z,77.22
2022-12-15T09:34:05.379Z,77.21
2022-12-15T09:36:34.247Z,77.19
2022-12-15T09:39:03.107Z,77.29
2022-12-15T09:41:34.766Z,77.26
2022-12-15T09:44:17.543Z,77.30
2022-12-15T09:47:28.604Z,76.82
2022-12-15T09:50:00.054Z,76.27
2022-12-15T09:52:56.821Z,76.06
2022-12-15T09:55:30.412Z,75.52
2022-12-15T09:58:18.851Z,75.77
2022-12-15T10:01:13.291Z,75.13
2022-12-15T10:03:50.613Z,75.68
2022-12-15T10:06:22.699Z,75.91
2022-12-15T10:09:02.365Z,75.27
2022-12-15T10:11:33.127Z,75.62
2022-12-15T10:14:24.566Z,75.97
2022-12-15T10:17:26.243Z,76.74
2022-12-15T10:20:18.469Z,76.88
2022-12-15T10:22:50.155Z,76.91
2022-12-15T10:25:30.482Z,76.89
2022-12-15T10:27:58.760Z,76.99
2022-12-15T10:30:26.899Z,76.70
2022-12-15T10:33:10.657Z,76.23
2022-12-15T10:35:40.523Z,76.63
2022-12-15T10:38:25.356Z,76.90
2022-12-15T10:40:56.863Z,76.85
2022-12-15T10:43:41.016Z,77.06
2022-12-15T10:46:25.628Z,76.93
2022-12-15T10:49:09.095Z,76.85
2022-12-15T10:51:50.363Z,76.39
2022-12-15T10:54:19.122Z,76.75
2022-12-15T10:56:53.742Z,76.33
2022-12-15T10:59:31.781Z,75.76
2022-12-15T11:02:25.491Z,75.34
2022-12-15T11:04:58.298Z,76.21
2022-12-15T11:07:41.674Z,76.48
2022-12-15T11:10:15.907Z,76.53
2022-12-15T11:13:00.918Z,75.82
2022-12-15T11:15:31.934Z,75.29
2022-12-15T11:18:15.961Z,74.81
2022-12-15T11:21:11.556Z,74.88
2022-12-15T11:24:02.003Z,74.55
2022-12-15T11:26:54.743Z,74.68
2022-12-15T11:29:55.618Z,73.95
2022-12-15T11:32:32.174Z,74.17
2022-12-15T11:35:00.638Z,73.90
2022-12-15T11:37:52.738Z,74.11
2022-12-15T11:40:30.750Z,74.26
2022-12-15T11:43:18.976Z,74.19
2022-12-15T11:46:07.352Z,74.22
2022-12-15T11:49:13.812Z,74.36
2022-12-15T11:52:06.364Z,75.12
2022-12-15T11:54:49.872Z,75.80
2022-12-15T11:57:27.368Z,76.29
2022-12-15T12:00:15.867Z,76.45
2022-12-15T12:03:01.084Z,75.83
2022-12-15T12:05:58.495Z,75.70
2022-12-15T12:08:44.462Z,76.26
2022-12-15T12:11:51.244Z,76.14
2022-12-15T12:14:54.068Z,75.84
2022-12-15T12:17:45.364Z,75.95
2022-12-15T12:20:25.953Z,76.86
2022-12-15T12:23:00.014Z,76.64
2022-12-15T12:25:30.004Z,76.61
2022-12-15T12:28:00.828Z,77.33
2022-12-15T12:30:45.796Z,77.87
2022-12-15T12:33:41.184Z,78.24
2022-12-15T12:36:14.384Z,78.20
2022-12-15T12:38:52.238Z,78.96
2022-12-15T12:41:22.739Z,78.99
2022-12-15T12:43:58.186Z,78.79
2022-12-15T12:46:49.015Z,78.52
2022-12-15T12:49:56.480Z,79.06
2022-12-15T12:52:37.040Z,79.54
2022-12-15T12:55:14.842Z,79.38
2022-12-15T12:57:43.930Z,79.21
2022-12-15T13:00:20.953Z,78.59
2022-12-15T13:03:10.972Z,79.08
2022-12-15T13:05:40.878Z,80.09
2022-12-15T13:08:08.813Z,79.84
2022-12-15T13:10:41.781Z,80.46
2022-12-15T13:13:15.408Z,80.06
2022-12-15T13:15:50.923Z,80.31
2022-12-15T13:18:24.671Z,80.09
2022-12-15T13:20:57.164Z,80.20
2022-12-15T13:23:24.811Z,80.39
2022-12-15T13:25:59.180Z,80.19
2022-12-15T13:28:39.394Z,80.78
2022-12-15T13:31:16.627Z,80.74
2022-12-15T13:33:50.483Z,81.00
2022-12-15T13:36:41.443Z,80.44
2022-12-15T13:39:14.870Z,80.88
2022-12-15T13:42:23.774Z,80.95
2022-12-15T13:44:44.222Z,80.83
2022-12-15T13:47:20.358Z,81.58
2022-12-15T13:50:02.229Z,81.50
2022-12-15T13:53:17.170Z,81.22
2022-12-15T13:56:06.314Z,81.81
2022-12-15T13:58:50.571Z,81.97
2022-12-15T14:01:28.568Z,81.71
2022-12-15T14:04:04.652Z,81.87
2022-12-15T14:06:38.696Z,82.45
2022-12-15T14:09:13.642Z,81.88
2022-12-15T14:14:37.083Z,81.43
2022-12-15T14:17:09.237Z,81.53
2022-12-15T14:19:51.025Z,81.33
2022-12-15T14:22:30.534Z,80.82
2022-12-15T14:25:26.084Z,80.66
2022-12-15T14:27:53.795Z,80.32
2022-12-15T14:30:32.993Z,80.81
2022-12-15T14:33:07.105Z,80.84
2022-12-15T14:35:49.421Z,81.15
2022-12-15T14:38:39.790Z,81.79
2022-12-15T14:41:17.080Z,81.96
2022-12-15T14:43:44.971Z,82.17
2022-12-15T14:46:33.211Z,82.26
2022-12-15T14:49:07.253Z,82.21
2022-12-15T14:51:47.538Z,82.60
2022-12-15T14:54:28.285Z,82.94
2022-12-15T14:57:27.111Z,83.15
2022-12-15T14:59:55.728Z,83.10
2022-12-15T15:02:29.919Z,82.82
2022-12-15T15:03:14.222Z,82.07
2022-12-15T15:05:05.491Z,82.94
2022-12-15T15:07:35.420Z,82.87
2022-12-15T15:10:08.786Z,82.85
2022-12-15T15:12:47.325Z,82.75
2022-12-15T15:15:18.205Z,82.71
2022-12-15T15:17:54.905Z,82.88
2022-12-15T15:20:31.778Z,82.85
2022-12-15T15:23:10.796Z,82.49
2022-12-15T15:25:41.557Z,82.62
2022-12-15T15:28:15.650Z,82.82
2022-12-15T15:30:48.961Z,82.58
2022-12-15T15:33:18.340Z,82.97
2022-12-15T15:35:52.074Z,82.99
2022-12-15T15:38:32.445Z,82.77
2022-12-15T15:41:11.010Z,82.69
2022-12-15T15:43:39.043Z,82.56
2022-12-15T15:46:12.953Z,82.73
2022-12-15T15:48:57.589Z,82.70
2022-12-15T15:51:27.380Z,82.58
2022-12-15T15:54:00.149Z,82.74
2022-12-15T15:56:30.973Z,82.77
2022-12-15T15:59:09.297Z,83.26
2022-12-15T16:01:37.083Z,83.26
2022-12-15T16:04:06.794Z,82.93
2022-12-15T16:06:35.309Z,83.02
2022-12-15T16:09:06.529Z,83.11
2022-12-15T16:11:35.312Z,82.97
2022-12-15T16:14:03.716Z,83.26
2022-12-15T16:16:33.404Z,83.28
2022-12-15T16:19:01.388Z,83.14
2022-12-15T16:21:29.309Z,83.81
2022-12-15T16:23:58.495Z,84.00
2022-12-15T16:26:33.377Z,83.43
2022-12-15T16:29:01.456Z,83.12
2022-12-15T16:31:41.429Z,83.00
2022-12-15T16:34:09.905Z,82.72
2022-12-15T16:36:37.674Z,82.75
2022-12-15T16:39:13.663Z,83.03
2022-12-15T16:41:41.471Z,82.96
2022-12-15T16:44:12.573Z,82.68
2022-12-15T16:46:40.543Z,82.95
2022-12-15T16:49:08.632Z,83.27
2022-12-15T16:51:43.038Z,83.55
2022-12-15T16:54:33.969Z,83.67
2022-12-15T16:57:02.113Z,83.30
2022-12-15T16:59:34.712Z,83.47
2022-12-15T17:02:23.080Z,83.63
2022-12-15T17:04:51.664Z,83.85
2022-12-15T17:07:20.697Z,84.02
2022-12-15T17:09:51.904Z,83.97
2022-12-15T17:12:19.907Z,84.07
2022-12-15T17:14:48.181Z,84.34
2022-12-15T17:17:17.890Z,84.62
2022-12-15T17:20:19.843Z,84.71
2022-12-15T17:22:34.564Z,84.89
2022-12-15T17:25:02.628Z,85.19
2022-12-15T17:27:30.665Z,85.03
2022-12-15T17:30:00.573Z,84.92
2022-12-15T17:32:28.348Z,85.08
2022-12-15T17:34:56.661Z,85.24
2022-12-15T17:37:26.140Z,85.43
2022-12-15T17:39:57.269Z,85.38
2022-12-15T17:42:24.983Z,84.99
2022-12-15T17:44:52.999Z,85.42
2022-12-15T17:47:20.995Z,85.14
2022-12-15T17:49:48.934Z,85.44
2022-12-15T17:52:27.325Z,85.99
2022-12-15T17:54:56.578Z,85.78
2022-12-15T17:57:24.716Z,85.70
2022-12-15T17:59:52.821Z,86.14
2022-12-15T18:02:20.731Z,85.95
2022-12-15T18:04:49.119Z,85.88
2022-12-15T18:07:22.774Z,86.05
2022-12-15T18:09:52.998Z,86.19
2022-12-15T18:12:24.393Z,85.85
2022-12-15T18:14:53.212Z,86.19
2022-12-15T18:17:21.723Z,85.69
2022-12-15T18:19:49.887Z,85.70
2022-12-15T18:22:23.782Z,85.37
2022-12-15T18:24:53.675Z,84.80
2022-12-15T18:27:27.520Z,84.83
2022-12-15T18:29:56.907Z,84.70
2022-12-15T18:32:27.181Z,84.78
2022-12-15T18:34:55.910Z,84.63
2022-12-15T18:37:25.373Z,84.59
2022-12-15T18:39:53.524Z,84.70
2022-12-15T18:42:23.187Z,84.56
2022-12-15T18:44:53.066Z,84.75
2022-12-15T18:47:23.079Z,84.85
2022-12-15T18:49:51.812Z,83.83
2022-12-15T18:52:22.795Z,83.76
2022-12-15T18:54:53.246Z,83.32
2022-12-15T18:57:37.894Z,82.32
2022-12-15T19:00:25.601Z,82.26
2022-12-15T19:02:55.407Z,83.06
2022-12-15T19:05:29.994Z,82.75
2022-12-15T19:08:24.779Z,82.73
2022-12-15T19:10:55.879Z,82.87
2022-12-15T19:13:31.469Z,82.40
2022-12-15T19:16:01.446Z,82.41
2022-12-15T19:18:47.999Z,82.43
2022-12-15T19:21:37.444Z,82.74
2022-12-15T19:24:09.655Z,82.99
2022-12-15T19:26:40.313Z,82.75
2022-12-15T19:29:15.207Z,82.90
2022-12-15T19:31:43.655Z,83.01
2022-12-15T19:34:11.550Z,83.37
2022-12-15T19:36:40.003Z,83.63
2022-12-15T19:39:18.197Z,83.66
2022-12-15T19:41:46.441Z,83.02
2022-12-15T19:44:17.580Z,82.99
2022-12-15T19:46:45.752Z,82.80
2022-12-15T19:49:14.437Z,83.02
2022-12-15T19:51:43.530Z,83.04
2022-12-15T19:54:18.001Z,82.63
2022-12-15T19:56:46.099Z,82.74
2022-12-15T19:59:28.222Z,82.54
2022-12-15T20:01:56.488Z,82.43
2022-12-15T20:04:24.693Z,82.17
2022-12-15T20:06:52.849Z,81.59
2022-12-15T20:09:20.663Z,82.21
2022-12-15T20:11:48.673Z,82.21
2022-12-15T20:14:18.132Z,81.76
2022-12-15T20:16:46.477Z,81.98
2022-12-15T20:19:14.260Z,81.12
2022-12-15T20:21:42.662Z,81.01
2022-12-15T20:24:16.774Z,81.38
2022-12-15T20:26:46.000Z,81.35
2022-12-15T20:29:24.976Z,81.64
2022-12-15T20:31:53.247Z,82.02
2022-12-15T20:34:22.152Z,82.72
2022-12-15T20:36:50.577Z,82.95
2022-12-15T20:39:29.299Z,82.73
2022-12-15T20:41:58.013Z,82.60
2022-12-15T20:44:25.798Z,82.09
2022-12-15T20:46:54.673Z,82.12
2022-12-15T20:49:23.950Z,82.24
2022-12-15T20:51:52.524Z,82.03
2022-12-15T20:54:22.486Z,82.00
2022-12-15T20:56:51.090Z,81.81
2022-12-15T20:59:19.005Z,81.71
2022-12-15T21:01:47.449Z,81.88
2022-12-15T21:04:21.514Z,81.78
2022-12-15T21:06:54.442Z,81.48
2022-12-15T21:09:23.722Z,81.74
2022-12-15T21:11:54.610Z,81.46
2022-12-15T21:14:23.996Z,81.21
2022-12-15T21:16:52.578Z,81.71
2022-12-15T21:19:22.037Z,81.98
2022-12-15T21:21:54.995Z,81.88
2022-12-15T21:24:28.612Z,82.10
2022-12-15T21:26:57.120Z,82.02
2022-12-15T21:29:27.997Z,81.11
2022-12-15T21:31:56.229Z,80.92
2022-12-15T21:34:23.913Z,80.77
2022-12-15T21:36:55.076Z,80.24
2022-12-15T21:39:30.159Z,79.83
2022-12-15T21:42:14.264Z,79.31
2022-12-15T21:44:42.025Z,79.36
2022-12-15T21:47:49.396Z,79.17
2022-12-15T21:50:18.426Z,79.67
2022-12-15T21:52:47.495Z,79.74
2022-12-15T21:55:21.363Z,78.90
2022-12-15T21:57:49.937Z,79.47
2022-12-15T22:00:21.282Z,79.39
2022-12-15T22:02:51.534Z,80.30
2022-12-15T22:05:23.984Z,79.72
2022-12-15T22:07:52.340Z,79.90
2022-12-15T22:10:20.113Z,80.02
2022-12-15T22:12:59.056Z,79.97
2022-12-15T22:15:28.801Z,80.00
2022-12-15T22:17:56.909Z,79.52
2022-12-15T22:20:25.530Z,78.75
2022-12-15T22:22:53.604Z,78.63
2022-12-15T22:25:24.722Z,78.66
2022-12-15T22:27:52.978Z,79.27
2022-12-15T22:30:26.821Z,78.96
2022-12-15T22:32:54.926Z,78.67
2022-12-15T22:35:25.804Z,78.29
2022-12-15T22:37:54.083Z,78.41
2022-12-15T22:40:24.261Z,78.51
2022-12-15T22:42:57.087Z,78.31
2022-12-15T22:45:25.124Z,78.74
2022-12-15T22:47:53.522Z,79.16
2022-12-15T22:50:26.842Z,78.60
2022-12-15T22:52:55.398Z,78.80
2022-12-15T22:55:24.674Z,79.28
2022-12-15T22:58:01.780Z,78.82
2022-12-15T23:00:29.605Z,79.16
2022-12-15T23:02:58.780Z,79.17
2022-12-15T23:05:26.749Z,79.72
2022-12-15T23:07:54.939Z,79.76
2022-12-15T23:10:41.549Z,79.87
2022-12-15T23:13:09.530Z,80.46
2022-12-15T23:15:55.841Z,80.49
2022-12-15T23:18:23.869Z,80.94
2022-12-15T23:20:51.748Z,80.86
2022-12-15T23:23:19.856Z,81.23
2022-12-15T23:25:47.650Z,81.92
2022-12-15T23:28:15.811Z,82.15
2022-12-15T23:30:47.923Z,82.10
2022-12-15T23:33:16.175Z,82.36
2022-12-15T23:35:44.189Z,82.25
2022-12-15T23:38:13.001Z,82.02
2022-12-15T23:40:52.612Z,81.69
2022-12-15T23:43:22.438Z,82.02
2022-12-15T23:46:16.287Z,82.43
2022-12-15T23:48:44.682Z,82.69
2022-12-15T23:51:15.068Z,82.43
2022-12-15T23:53:44.803Z,82.38
2022-12-15T23:56:14.133Z,82.14
2022-12-15T23:58:45.040Z,82.40
